createdAt,value
2023-05-11T00:00:37.700Z,990.84
2023-05-11T00:01:37.660Z,990.84
2023-05-11T00:02:37.724Z,990.80
2023-05-11T00:03:37.758Z,990.80
2023-05-11T00:04:37.722Z,990.83
2023-05-11T00:05:37.599Z,990.77
2023-05-11T00:06:37.592Z,990.79
2023-05-11T00:07:37.604Z,990.81
2023-05-11T00:08:37.579Z,990.76
2023-05-11T00:09:37.588Z,990.78
2023-05-11T00:10:37.573Z,990.76
2023-05-11T00:11:37.575Z,990.72
2023-05-11T00:12:37.584Z,990.74
2023-05-11T00:13:37.641Z,990.70
2023-05-11T00:14:37.546Z,990.76
2023-05-11T00:15:37.727Z,990.73
2023-05-11T00:16:37.688Z,990.71
2023-05-11T00:17:37.591Z,990.72
2023-05-11T00:18:37.584Z,990.73
2023-05-11T00:19:37.507Z,990.70
2023-05-11T00:20:37.510Z,990.69
2023-05-11T00:21:37.516Z,990.73
2023-05-11T00:22:37.472Z,990.71
2023-05-11T00:23:37.585Z,990.71
2023-05-11T00:24:37.640Z,990.70
2023-05-11T00:25:37.469Z,990.69
2023-05-11T00:26:37.497Z,990.74
2023-05-11T00:27:37.441Z,990.78
2023-05-11T00:28:37.454Z,990.82
2023-05-11T00:29:37.485Z,990.76
2023-05-11T00:30:37.441Z,990.81
2023-05-11T00:31:37.459Z,990.79
2023-05-11T00:32:37.445Z,990.71
2023-05-11T00:33:37.432Z,990.77
2023-05-11T00:34:37.428Z,990.78
2023-05-11T00:35:37.372Z,990.76
2023-05-11T00:36:37.395Z,990.77
2023-05-11T00:37:37.370Z,990.75
2023-05-11T00:38:37.378Z,990.77
2023-05-11T00:39:37.349Z,990.73
2023-05-11T00:40:37.354Z,990.80
2023-05-11T00:41:37.360Z,990.76
2023-05-11T00:42:37.316Z,990.73
2023-05-11T00:43:37.339Z,990.73
2023-05-11T00:44:37.297Z,990.79
2023-05-11T00:45:37.327Z,990.77
2023-05-11T00:46:37.339Z,990.78
2023-05-11T00:47:37.289Z,990.75
2023-05-11T00:48:38.270Z,990.74
2023-05-11T00:49:37.283Z,990.74
2023-05-11T00:50:37.276Z,990.79
2023-05-11T00:51:37.245Z,990.75
2023-05-11T00:52:37.264Z,990.71
2023-05-11T00:53:37.264Z,990.74
2023-05-11T00:54:37.255Z,990.68
2023-05-11T00:55:37.265Z,990.70
2023-05-11T00:56:37.226Z,990.71
2023-05-11T00:57:37.205Z,990.67
2023-05-11T00:58:37.221Z,990.68
2023-05-11T00:59:37.217Z,990.68
2023-05-11T01:00:37.201Z,990.70
2023-05-11T01:01:37.188Z,990.71
2023-05-11T01:02:37.285Z,990.70
2023-05-11T01:03:37.218Z,990.71
2023-05-11T01:04:37.167Z,990.73
2023-05-11T01:05:37.162Z,990.75
2023-05-11T01:06:37.198Z,990.74
2023-05-11T01:07:37.187Z,990.70
2023-05-11T01:08:37.141Z,990.81
2023-05-11T01:09:37.148Z,990.76
2023-05-11T01:10:37.159Z,990.77
2023-05-11T01:11:37.130Z,990.74
2023-05-11T01:12:37.112Z,990.73
2023-05-11T01:13:37.156Z,990.77
2023-05-11T01:14:37.084Z,990.75
2023-05-11T01:15:37.104Z,990.74
2023-05-11T01:16:37.092Z,990.70
2023-05-11T01:17:37.113Z,990.74
2023-05-11T01:18:37.179Z,990.70
2023-05-11T01:19:37.200Z,990.73
2023-05-11T01:20:37.033Z,990.75
2023-05-11T01:21:37.054Z,990.74
2023-05-11T01:22:37.048Z,990.77
2023-05-11T01:23:37.051Z,990.71
2023-05-11T01:24:37.074Z,990.73
2023-05-11T01:25:37.013Z,990.73
2023-05-11T01:26:37.053Z,990.73
2023-05-11T01:27:37.074Z,990.69
2023-05-11T01:28:36.982Z,990.72
2023-05-11T01:29:36.992Z,990.72
2023-05-11T01:30:36.998Z,990.69
2023-05-11T01:31:36.969Z,990.74
2023-05-11T01:32:37.234Z,990.79
2023-05-11T01:33:36.966Z,990.72
2023-05-11T01:34:36.940Z,990.76
2023-05-11T01:35:36.920Z,990.74
2023-05-11T01:36:36.922Z,990.69
2023-05-11T01:37:36.931Z,990.76
2023-05-11T01:38:36.940Z,990.76
2023-05-11T01:39:36.958Z,990.75
2023-05-11T01:40:36.886Z,990.80
2023-05-11T01:41:37.918Z,990.75
2023-05-11T01:42:36.885Z,990.79
2023-05-11T01:43:36.872Z,990.70
2023-05-11T01:44:36.890Z,990.77
2023-05-11T01:45:36.889Z,990.74
2023-05-11T01:46:36.864Z,990.79
2023-05-11T01:47:36.873Z,990.80
2023-05-11T01:48:36.825Z,990.82
2023-05-11T01:49:36.816Z,990.80
2023-05-11T01:50:36.861Z,990.79
2023-05-11T01:51:36.791Z,990.82
2023-05-11T01:52:36.792Z,990.78
2023-05-11T01:53:36.781Z,990.79
2023-05-11T01:54:36.799Z,990.78
2023-05-11T01:55:36.831Z,990.81
2023-05-11T01:56:36.791Z,990.79
2023-05-11T01:57:36.784Z,990.78
2023-05-11T01:58:36.771Z,990.77
2023-05-11T01:59:36.745Z,990.81
2023-05-11T02:00:36.744Z,990.77
2023-05-11T02:01:36.781Z,990.76
2023-05-11T02:02:36.800Z,990.73
2023-05-11T02:03:36.899Z,990.78
2023-05-11T02:04:36.752Z,990.71
2023-05-11T02:05:36.711Z,990.76
2023-05-11T02:06:36.731Z,990.71
2023-05-11T02:07:36.657Z,990.76
2023-05-11T02:08:36.691Z,990.73
2023-05-11T02:09:36.689Z,990.73
2023-05-11T02:10:36.660Z,990.75
2023-05-11T02:11:36.670Z,990.78
2023-05-11T02:12:36.673Z,990.75
2023-05-11T02:13:36.697Z,990.76
2023-05-11T02:14:36.711Z,990.68
2023-05-11T02:15:36.707Z,990.75
2023-05-11T02:16:36.646Z,990.75
2023-05-11T02:17:36.685Z,990.72
2023-05-11T02:18:36.657Z,990.76
2023-05-11T02:19:36.580Z,990.76
2023-05-11T02:20:36.569Z,990.72
2023-05-11T02:21:36.573Z,990.73
2023-05-11T02:22:36.560Z,990.71
2023-05-11T02:23:36.624Z,990.71
2023-05-11T02:24:36.576Z,990.66
2023-05-11T02:25:36.577Z,990.74
2023-05-11T02:26:36.559Z,990.75
2023-05-11T02:27:36.535Z,990.73
2023-05-11T02:28:36.577Z,990.76
2023-05-11T02:29:36.506Z,990.77
2023-05-11T02:30:36.517Z,990.76
2023-05-11T02:31:36.556Z,990.72
2023-05-11T02:32:36.511Z,990.84
2023-05-11T02:33:36.515Z,990.79
2023-05-11T02:34:36.510Z,990.83
2023-05-11T02:35:36.502Z,990.79
2023-05-11T02:36:36.478Z,990.75
2023-05-11T02:37:36.580Z,990.80
2023-05-11T02:38:36.480Z,990.82
2023-05-11T02:39:36.460Z,990.76
2023-05-11T02:40:36.446Z,990.82
2023-05-11T02:41:36.420Z,990.78
2023-05-11T02:42:36.443Z,990.76
2023-05-11T02:43:36.406Z,990.70
2023-05-11T02:44:36.441Z,990.73
2023-05-11T02:45:36.434Z,990.75
2023-05-11T02:46:36.442Z,990.72
2023-05-11T02:47:36.423Z,990.73
2023-05-11T02:48:36.351Z,990.78
2023-05-11T02:49:36.418Z,990.76
2023-05-11T02:50:36.374Z,990.72
2023-05-11T02:51:36.344Z,990.76
2023-05-11T02:52:36.346Z,990.77
2023-05-11T02:53:36.337Z,990.75
2023-05-11T02:54:36.370Z,990.82
2023-05-11T02:55:36.294Z,990.80
2023-05-11T02:56:36.318Z,990.79
2023-05-11T02:57:36.309Z,990.78
2023-05-11T02:58:36.344Z,990.82
2023-05-11T02:59:36.277Z,990.75
2023-05-11T03:00:40.180Z,990.85
2023-05-11T03:01:36.352Z,990.84
2023-05-11T03:02:36.373Z,990.86
2023-05-11T03:03:36.419Z,990.86
2023-05-11T03:04:36.243Z,990.88
2023-05-11T03:05:36.265Z,990.88
2023-05-11T03:06:36.223Z,990.85
2023-05-11T03:07:36.212Z,990.85
2023-05-11T03:08:36.218Z,990.84
2023-05-11T03:09:36.213Z,990.83
2023-05-11T03:10:36.208Z,990.84
2023-05-11T03:11:36.175Z,990.86
2023-05-11T03:12:36.198Z,990.86
2023-05-11T03:13:36.179Z,990.88
2023-05-11T03:14:36.158Z,990.86
2023-05-11T03:15:36.172Z,990.84
2023-05-11T03:16:36.169Z,990.87
2023-05-11T03:17:36.141Z,990.89
2023-05-11T03:18:37.136Z,990.92
2023-05-11T03:19:36.120Z,990.89
2023-05-11T03:20:36.118Z,990.93
2023-05-11T03:21:36.131Z,990.89
2023-05-11T03:22:36.114Z,990.86
2023-05-11T03:23:36.142Z,990.84
2023-05-11T03:24:36.110Z,990.83
2023-05-11T03:25:36.069Z,990.79
2023-05-11T03:26:36.080Z,990.83
2023-05-11T03:27:36.093Z,990.83
2023-05-11T03:28:36.117Z,990.81
2023-05-11T03:29:36.057Z,990.81
2023-05-11T03:30:36.043Z,990.82
2023-05-11T03:31:36.099Z,990.72
2023-05-11T03:32:36.119Z,990.74
2023-05-11T03:33:36.024Z,990.79
2023-05-11T03:34:36.040Z,990.78
2023-05-11T03:35:36.023Z,990.75
2023-05-11T03:36:36.005Z,990.76
2023-05-11T03:37:35.989Z,990.81
2023-05-11T03:38:35.999Z,990.77
2023-05-11T03:39:36.000Z,990.80
2023-05-11T03:40:35.966Z,990.81
2023-05-11T03:41:36.005Z,990.80
2023-05-11T03:42:35.948Z,990.78
2023-05-11T03:43:35.954Z,990.77
2023-05-11T03:44:35.957Z,990.81
2023-05-11T03:45:36.266Z,990.77
2023-05-11T03:46:35.992Z,990.73
2023-05-11T03:47:36.064Z,990.80
2023-05-11T03:48:36.032Z,990.74
2023-05-11T03:49:36.386Z,990.77
2023-05-11T03:50:35.933Z,990.73
2023-05-11T03:51:35.865Z,990.78
2023-05-11T03:52:35.938Z,990.72
2023-05-11T03:53:35.973Z,990.70
2023-05-11T03:54:35.944Z,990.67
2023-05-11T03:55:35.992Z,990.73
2023-05-11T03:56:35.905Z,990.71
2023-05-11T03:57:36.001Z,990.72
2023-05-11T03:58:35.831Z,990.72
2023-05-11T03:59:35.890Z,990.74
2023-05-11T04:00:35.995Z,990.73
2023-05-11T04:01:35.814Z,990.67
2023-05-11T04:02:35.896Z,990.74
2023-05-11T04:03:35.960Z,990.73
2023-05-11T04:04:35.830Z,990.70
2023-05-11T04:05:35.917Z,990.68
2023-05-11T04:06:35.922Z,990.73
2023-05-11T04:07:35.925Z,990.72
2023-05-11T04:08:35.741Z,990.71
2023-05-11T04:09:35.744Z,990.75
2023-05-11T04:10:35.736Z,990.68
2023-05-11T04:11:35.740Z,990.73
2023-05-11T04:12:35.819Z,990.71
2023-05-11T04:13:35.837Z,990.70
2023-05-11T04:14:35.716Z,990.83
2023-05-11T04:15:35.854Z,990.79
2023-05-11T04:16:35.741Z,990.75
2023-05-11T04:17:35.708Z,990.76
2023-05-11T04:18:35.771Z,990.74
2023-05-11T04:19:35.687Z,990.73
2023-05-11T04:20:35.668Z,990.80
2023-05-11T04:21:35.650Z,990.76
2023-05-11T04:22:35.669Z,990.77
2023-05-11T04:23:35.625Z,990.80
2023-05-11T04:24:35.695Z,990.80
2023-05-11T04:25:35.623Z,990.81
2023-05-11T04:26:35.676Z,990.79
2023-05-11T04:27:35.672Z,990.76
2023-05-11T04:28:35.598Z,990.80
2023-05-11T04:29:35.649Z,990.82
2023-05-11T04:30:35.609Z,990.79
2023-05-11T04:31:35.691Z,990.83
2023-05-11T04:32:35.679Z,990.75
2023-05-11T04:33:35.695Z,990.83
2023-05-11T04:34:35.561Z,990.78
2023-05-11T04:35:35.682Z,990.82
2023-05-11T04:36:35.682Z,990.80
2023-05-11T04:37:35.534Z,990.90
2023-05-11T04:38:35.542Z,990.83
2023-05-11T04:39:35.757Z,990.82
2023-05-11T04:40:35.603Z,990.84
2023-05-11T04:41:35.653Z,990.87
2023-05-11T04:42:35.526Z,990.88
2023-05-11T04:43:35.572Z,990.91
2023-05-11T04:44:35.505Z,990.90
2023-05-11T04:45:35.468Z,990.87
2023-05-11T04:46:35.744Z,990.87
2023-05-11T04:47:35.595Z,990.89
2023-05-11T04:48:35.613Z,990.87
2023-05-11T04:49:35.446Z,990.87
2023-05-11T04:50:35.594Z,990.89
2023-05-11T04:51:35.428Z,990.87
2023-05-11T04:52:35.473Z,990.89
2023-05-11T04:53:35.537Z,990.89
2023-05-11T04:54:35.429Z,990.85
2023-05-11T04:55:35.400Z,990.87
2023-05-11T04:56:35.386Z,990.90
2023-05-11T04:57:35.395Z,990.89
2023-05-11T04:58:35.358Z,990.89
2023-05-11T04:59:35.535Z,990.92
2023-05-11T05:00:35.361Z,990.92
2023-05-11T05:01:35.644Z,990.92
2023-05-11T05:02:35.732Z,990.88
2023-05-11T05:03:35.402Z,990.88
2023-05-11T05:04:36.523Z,990.84
2023-05-11T05:05:36.316Z,990.92
2023-05-11T05:06:35.301Z,990.86
2023-05-11T05:07:35.422Z,990.86
2023-05-11T05:08:35.421Z,990.91
2023-05-11T05:09:35.430Z,990.90
2023-05-11T05:10:35.297Z,990.87
2023-05-11T05:11:35.392Z,990.88
2023-05-11T05:12:35.253Z,990.92
2023-05-11T05:13:35.320Z,990.89
2023-05-11T05:14:35.272Z,990.88
2023-05-11T05:15:35.231Z,990.88
2023-05-11T05:16:35.316Z,990.93
2023-05-11T05:17:35.252Z,991.00
2023-05-11T05:18:35.263Z,990.98
2023-05-11T05:19:35.281Z,990.98
2023-05-11T05:20:35.402Z,990.92
2023-05-11T05:21:35.184Z,990.94
2023-05-11T05:22:35.181Z,991.00
2023-05-11T05:23:35.207Z,990.94
2023-05-11T05:24:35.248Z,990.95
2023-05-11T05:25:35.306Z,991.00
2023-05-11T05:26:35.245Z,991.01
2023-05-11T05:27:35.374Z,990.96
2023-05-11T05:28:35.133Z,991.00
2023-05-11T05:29:35.236Z,990.96
2023-05-11T05:30:35.229Z,990.98
2023-05-11T05:31:35.178Z,990.98
2023-05-11T05:32:35.194Z,990.99
2023-05-11T05:33:35.101Z,990.97
2023-05-11T05:34:35.128Z,991.01
2023-05-11T05:35:35.218Z,991.00
2023-05-11T05:36:35.076Z,991.03
2023-05-11T05:37:35.077Z,991.05
2023-05-11T05:38:35.088Z,991.01
2023-05-11T05:39:35.105Z,991.03
2023-05-11T05:40:35.035Z,991.05
2023-05-11T05:41:35.092Z,991.05
2023-05-11T05:42:35.067Z,991.08
2023-05-11T05:43:35.026Z,991.07
2023-05-11T05:44:35.032Z,991.12
2023-05-11T05:45:35.078Z,991.14
2023-05-11T05:46:35.039Z,991.12
2023-05-11T05:47:34.999Z,991.09
2023-05-11T05:48:34.990Z,991.15
2023-05-11T05:49:34.982Z,991.12
2023-05-11T05:50:35.022Z,991.13
2023-05-11T05:51:34.936Z,991.15
2023-05-11T05:52:35.978Z,991.17
2023-05-11T05:53:34.981Z,991.19
2023-05-11T05:54:34.926Z,991.23
2023-05-11T05:55:34.952Z,991.26
2023-05-11T05:56:34.977Z,991.27
2023-05-11T05:57:34.938Z,991.26
2023-05-11T05:58:34.921Z,991.22
2023-05-11T05:59:34.892Z,991.22
2023-05-11T06:00:34.883Z,991.25
2023-05-11T06:01:34.952Z,991.22
2023-05-11T06:02:35.024Z,991.24
2023-05-11T06:03:35.074Z,991.28
2023-05-11T06:04:34.855Z,991.32
2023-05-11T06:05:34.851Z,991.37
2023-05-11T06:06:34.878Z,991.30
2023-05-11T06:07:34.846Z,991.31
2023-05-11T06:08:34.907Z,991.34
2023-05-11T06:09:35.815Z,991.37
2023-05-11T06:10:34.893Z,991.39
2023-05-11T06:11:34.824Z,991.37
2023-05-11T06:12:34.833Z,991.33
2023-05-11T06:13:34.786Z,991.39
2023-05-11T06:14:34.782Z,991.37
2023-05-11T06:15:34.768Z,991.43
2023-05-11T06:16:34.951Z,991.41
2023-05-11T06:17:34.850Z,991.42
2023-05-11T06:18:34.772Z,991.45
2023-05-11T06:19:34.754Z,991.36
2023-05-11T06:20:34.734Z,991.43
2023-05-11T06:21:34.759Z,991.43
2023-05-11T06:22:34.693Z,991.42
2023-05-11T06:23:34.730Z,991.46
2023-05-11T06:24:34.724Z,991.35
2023-05-11T06:25:34.715Z,991.38
2023-05-11T06:26:34.732Z,991.38
2023-05-11T06:27:34.694Z,991.39
2023-05-11T06:28:34.684Z,991.34
2023-05-11T06:29:34.692Z,991.32
2023-05-11T06:30:34.663Z,991.34
2023-05-11T06:31:34.662Z,991.26
2023-05-11T06:32:34.677Z,991.29
2023-05-11T06:33:34.650Z,991.33
2023-05-11T06:34:34.623Z,991.35
2023-05-11T06:35:34.609Z,991.29
2023-05-11T06:36:34.652Z,991.34
2023-05-11T06:37:34.602Z,991.31
2023-05-11T06:38:34.636Z,991.31
2023-05-11T06:39:34.634Z,991.29
2023-05-11T06:40:34.588Z,991.32
2023-05-11T06:41:34.568Z,991.35
2023-05-11T06:42:34.559Z,991.31
2023-05-11T06:43:34.553Z,991.31
2023-05-11T06:44:34.560Z,991.33
2023-05-11T06:45:34.678Z,991.31
2023-05-11T06:46:34.680Z,991.30
2023-05-11T06:47:34.585Z,991.26
2023-05-11T06:48:34.541Z,991.34
2023-05-11T06:49:34.531Z,991.25
2023-05-11T06:50:34.508Z,991.29
2023-05-11T06:51:34.529Z,991.25
2023-05-11T06:52:34.529Z,991.24
2023-05-11T06:53:34.528Z,991.26
2023-05-11T06:54:34.497Z,991.26
2023-05-11T06:55:34.496Z,991.26
2023-05-11T06:56:34.450Z,991.31
2023-05-11T06:57:34.535Z,991.26
2023-05-11T06:58:34.480Z,991.30
2023-05-11T06:59:34.444Z,991.32
2023-05-11T07:00:34.426Z,991.34
2023-05-11T07:01:34.591Z,991.33
2023-05-11T07:02:34.513Z,991.36
2023-05-11T07:03:34.482Z,991.29
2023-05-11T07:04:34.647Z,991.36
2023-05-11T07:05:34.420Z,991.34
2023-05-11T07:06:34.378Z,991.35
2023-05-11T07:07:34.490Z,991.35
2023-05-11T07:08:34.418Z,991.32
2023-05-11T07:09:34.404Z,991.26
2023-05-11T07:10:34.369Z,991.29
2023-05-11T07:11:34.350Z,991.34
2023-05-11T07:12:34.361Z,991.34
2023-05-11T07:13:34.452Z,991.34
2023-05-11T07:14:34.330Z,991.31
2023-05-11T07:15:34.308Z,991.32
2023-05-11T07:16:34.346Z,991.29
2023-05-11T07:17:34.348Z,991.22
2023-05-11T07:18:34.358Z,991.30
2023-05-11T07:19:34.299Z,991.21
2023-05-11T07:20:34.280Z,991.24
2023-05-11T07:21:34.278Z,991.27
2023-05-11T07:22:34.295Z,991.22
2023-05-11T07:23:34.280Z,991.19
2023-05-11T07:24:34.346Z,991.22
2023-05-11T07:25:34.266Z,991.22
2023-05-11T07:26:34.252Z,991.27
2023-05-11T07:27:34.226Z,991.22
2023-05-11T07:28:34.247Z,991.25
2023-05-11T07:29:34.252Z,991.22
2023-05-11T07:30:34.239Z,991.28
2023-05-11T07:31:34.244Z,991.33
2023-05-11T07:32:34.254Z,991.35
2023-05-11T07:33:34.178Z,991.38
2023-05-11T07:34:34.249Z,991.34
2023-05-11T07:35:34.222Z,991.34
2023-05-11T07:36:34.184Z,991.34
2023-05-11T07:37:34.172Z,991.33
2023-05-11T07:38:34.177Z,991.37
2023-05-11T07:39:34.171Z,991.33
2023-05-11T07:40:34.137Z,991.32
2023-05-11T07:41:34.171Z,991.32
2023-05-11T07:42:34.138Z,991.38
2023-05-11T07:43:34.171Z,991.32
2023-05-11T07:44:34.116Z,991.32
2023-05-11T07:45:34.133Z,991.35
2023-05-11T07:46:34.186Z,991.32
2023-05-11T07:47:36.728Z,991.30
2023-05-11T07:48:35.076Z,991.33
2023-05-11T07:49:43.048Z,991.34
2023-05-11T07:50:36.066Z,991.34
2023-05-11T07:51:34.083Z,991.30
2023-05-11T07:52:34.187Z,991.35
2023-05-11T07:53:34.037Z,991.38
2023-05-11T07:54:34.022Z,991.31
2023-05-11T07:55:34.042Z,991.35
2023-05-11T07:56:34.034Z,991.34
2023-05-11T07:57:34.070Z,991.38
2023-05-11T07:58:34.037Z,991.28
2023-05-11T07:59:34.017Z,991.35
2023-05-11T08:00:33.978Z,991.37
2023-05-11T08:01:34.044Z,991.34
2023-05-11T08:02:34.055Z,991.30
2023-05-11T08:03:34.006Z,991.27
2023-05-11T08:04:33.955Z,991.25
2023-05-11T08:05:34.063Z,991.34
2023-05-11T08:06:34.106Z,991.34
2023-05-11T08:07:33.952Z,991.27
2023-05-11T08:08:33.955Z,991.30
2023-05-11T08:09:33.910Z,991.27
2023-05-11T08:10:33.978Z,991.27
2023-05-11T08:11:33.905Z,991.28
2023-05-11T08:12:33.947Z,991.31
2023-05-11T08:13:34.406Z,991.31
2023-05-11T08:14:33.921Z,991.33
2023-05-11T08:15:33.940Z,991.31
2023-05-11T08:16:33.944Z,991.37
2023-05-11T08:17:33.904Z,991.29
2023-05-11T08:18:33.887Z,991.31
2023-05-11T08:19:33.891Z,991.31
2023-05-11T08:20:33.840Z,991.36
2023-05-11T08:21:33.863Z,991.27
2023-05-11T08:22:33.874Z,991.30
2023-05-11T08:23:33.832Z,991.28
2023-05-11T08:24:33.811Z,991.32
2023-05-11T08:25:33.847Z,991.31
2023-05-11T08:26:33.781Z,991.33
2023-05-11T08:27:33.796Z,991.31
2023-05-11T08:28:33.784Z,991.34
2023-05-11T08:29:33.795Z,991.34
2023-05-11T08:30:33.836Z,991.39
2023-05-11T08:31:33.870Z,991.37
2023-05-11T08:32:40.617Z,991.35
2023-05-11T08:33:38.241Z,991.35
2023-05-11T08:34:34.834Z,991.31
2023-05-11T08:35:33.735Z,991.34
2023-05-11T08:36:33.732Z,991.34
2023-05-11T08:37:33.779Z,991.36
2023-05-11T08:38:33.716Z,991.34
2023-05-11T08:40:35.719Z,991.29
2023-05-11T08:41:33.686Z,991.33
2023-05-11T08:42:33.686Z,991.32
2023-05-11T08:43:33.654Z,991.36
2023-05-11T08:44:33.705Z,991.27
2023-05-11T08:45:33.737Z,991.39
2023-05-11T08:46:33.672Z,991.30
2023-05-11T08:47:34.659Z,991.34
2023-05-11T08:48:36.090Z,991.33
2023-05-11T08:49:34.665Z,991.36
2023-05-11T08:50:33.620Z,991.36
2023-05-11T08:51:33.636Z,991.35
2023-05-11T08:52:33.641Z,991.34
2023-05-11T08:53:33.611Z,991.35
2023-05-11T08:54:33.615Z,991.36
2023-05-11T08:55:33.650Z,991.29
2023-05-11T08:56:33.586Z,991.28
2023-05-11T08:57:33.610Z,991.33
2023-05-11T08:58:33.591Z,991.32
2023-05-11T08:59:33.648Z,991.37
2023-05-11T09:00:33.581Z,991.36
2023-05-11T09:01:33.641Z,991.36
2023-05-11T09:02:33.551Z,991.40
2023-05-11T09:03:33.571Z,991.32
2023-05-11T09:04:33.520Z,991.34
2023-05-11T09:05:33.633Z,991.36
2023-05-11T09:06:33.514Z,991.33
2023-05-11T09:07:33.510Z,991.41
2023-05-11T09:08:33.492Z,991.37
2023-05-11T09:09:33.490Z,991.32
2023-05-11T09:10:33.516Z,991.34
2023-05-11T09:11:33.483Z,991.32
2023-05-11T09:12:33.452Z,991.31
2023-05-11T09:13:33.473Z,991.30
2023-05-11T09:14:33.471Z,991.35
2023-05-11T09:15:36.895Z,991.34
2023-05-11T09:16:37.641Z,991.35
2023-05-11T09:17:34.495Z,991.29
2023-05-11T09:18:33.477Z,991.34
2023-05-11T09:19:33.438Z,991.32
2023-05-11T09:20:33.429Z,991.34
2023-05-11T09:21:33.406Z,991.33
2023-05-11T09:22:36.087Z,991.30
2023-05-11T09:23:34.402Z,991.31
2023-05-11T09:24:33.371Z,991.34
2023-05-11T09:25:33.396Z,991.32
2023-05-11T09:26:33.356Z,991.29
2023-05-11T09:27:33.361Z,991.30
2023-05-11T09:28:35.900Z,991.36
2023-05-11T09:29:34.340Z,991.31
2023-05-11T09:30:33.361Z,991.29
2023-05-11T09:31:33.421Z,991.30
2023-05-11T09:32:33.352Z,991.29
2023-05-11T09:33:33.416Z,991.30
2023-05-11T09:34:33.304Z,991.33
2023-05-11T09:35:33.324Z,991.28
2023-05-11T09:36:33.310Z,991.30
2023-05-11T09:37:34.312Z,991.30
2023-05-11T09:38:33.273Z,991.32
2023-05-11T09:40:34.936Z,991.33
2023-05-11T09:41:35.881Z,991.32
2023-05-11T09:42:34.284Z,991.35
2023-05-11T09:43:33.250Z,991.26
2023-05-11T09:44:33.260Z,991.32
2023-05-11T09:45:34.233Z,991.31
2023-05-11T09:46:33.335Z,991.31
2023-05-11T09:47:33.260Z,991.28
2023-05-11T09:48:33.238Z,991.29
2023-05-11T09:49:33.229Z,991.28
2023-05-11T09:50:33.203Z,991.31
2023-05-11T09:51:33.206Z,991.30
2023-05-11T09:52:33.174Z,991.31
2023-05-11T09:53:33.197Z,991.28
2023-05-11T09:54:33.168Z,991.29
2023-05-11T09:55:33.177Z,991.26
2023-05-11T09:56:33.158Z,991.30
2023-05-11T09:57:33.195Z,991.30
2023-05-11T09:58:33.169Z,991.29
2023-05-11T09:59:33.206Z,991.33
2023-05-11T10:00:33.158Z,991.31
2023-05-11T10:01:33.245Z,991.29
2023-05-11T10:02:33.189Z,991.26
2023-05-11T10:03:33.180Z,991.35
2023-05-11T10:04:33.239Z,991.32
2023-05-11T10:05:33.197Z,991.34
2023-05-11T10:06:33.125Z,991.27
2023-05-11T10:07:33.077Z,991.24
2023-05-11T10:08:33.090Z,991.22
2023-05-11T10:09:33.167Z,991.19
2023-05-11T10:10:33.066Z,991.18
2023-05-11T10:11:33.073Z,991.21
2023-05-11T10:12:34.824Z,991.14
2023-05-11T10:13:33.053Z,991.18
2023-05-11T10:14:33.082Z,991.14
2023-05-11T10:15:33.041Z,991.16
2023-05-11T10:16:33.114Z,991.11
2023-05-11T10:17:33.094Z,991.09
2023-05-11T10:18:33.063Z,991.13
2023-05-11T10:19:33.131Z,991.12
2023-05-11T10:20:33.058Z,991.10
2023-05-11T10:21:33.035Z,991.05
2023-05-11T10:22:34.055Z,991.08
2023-05-11T10:23:33.032Z,991.10
2023-05-11T10:24:32.968Z,991.11
2023-05-11T10:25:33.021Z,991.07
2023-05-11T10:26:32.988Z,991.21
2023-05-11T10:27:32.974Z,991.15
2023-05-11T10:28:32.980Z,991.18
2023-05-11T10:29:32.953Z,991.17
2023-05-11T10:30:32.937Z,991.08
2023-05-11T10:31:33.025Z,990.97
2023-05-11T10:32:32.953Z,991.04
2023-05-11T10:33:32.970Z,990.95
2023-05-11T10:34:32.905Z,990.96
2023-05-11T10:35:32.926Z,990.99
2023-05-11T10:36:32.910Z,990.91
2023-05-11T10:37:32.913Z,990.96
2023-05-11T10:38:32.928Z,990.99
2023-05-11T10:39:32.909Z,990.98
2023-05-11T10:40:32.926Z,991.02
2023-05-11T10:41:32.871Z,991.03
2023-05-11T10:42:32.910Z,991.03
2023-05-11T10:43:32.854Z,991.02
2023-05-11T10:44:32.867Z,991.01
2023-05-11T10:45:32.867Z,991.00
2023-05-11T10:46:32.932Z,991.05
2023-05-11T10:47:32.838Z,991.01
2023-05-11T10:48:32.809Z,991.04
2023-05-11T10:49:32.840Z,990.97
2023-05-11T10:50:32.809Z,990.95
2023-05-11T10:51:32.792Z,990.96
2023-05-11T10:52:32.783Z,990.94
2023-05-11T10:53:32.774Z,990.95
2023-05-11T10:54:32.797Z,990.92
2023-05-11T10:55:32.791Z,990.93
2023-05-11T10:56:32.760Z,990.96
2023-05-11T10:57:33.664Z,990.99
2023-05-11T10:58:33.756Z,990.96
2023-05-11T10:59:32.746Z,990.99
2023-05-11T11:00:32.795Z,990.95
2023-05-11T11:01:32.835Z,991.00
2023-05-11T11:02:32.826Z,991.02
2023-05-11T11:03:32.732Z,990.98
2023-05-11T11:04:32.719Z,990.97
2023-05-11T11:05:32.749Z,991.05
2023-05-11T11:06:32.743Z,991.01
2023-05-11T11:07:32.694Z,990.98
2023-05-11T11:08:32.690Z,990.99
2023-05-11T11:09:32.703Z,991.02
2023-05-11T11:10:32.705Z,991.03
2023-05-11T11:11:32.692Z,991.03
2023-05-11T11:12:32.706Z,991.02
2023-05-11T11:13:32.656Z,990.96
2023-05-11T11:14:32.673Z,990.97
2023-05-11T11:15:32.686Z,990.94
2023-05-11T11:16:32.710Z,990.92
2023-05-11T11:17:32.876Z,991.02
2023-05-11T11:18:32.679Z,990.95
2023-05-11T11:19:32.651Z,991.00
2023-05-11T11:20:32.622Z,990.95
2023-05-11T11:21:32.648Z,990.99
2023-05-11T11:22:32.622Z,990.96
2023-05-11T11:23:32.592Z,990.98
2023-05-11T11:24:32.596Z,990.99
2023-05-11T11:25:32.593Z,990.99
2023-05-11T11:26:32.602Z,990.98
2023-05-11T11:27:33.183Z,990.90
2023-05-11T11:28:32.641Z,990.98
2023-05-11T11:29:32.570Z,990.93
2023-05-11T11:30:32.657Z,990.96
2023-05-11T11:31:32.718Z,990.97
2023-05-11T11:32:32.601Z,990.95
2023-05-11T11:33:32.548Z,991.00
2023-05-11T11:34:32.580Z,990.89
2023-05-11T11:35:32.525Z,990.91
2023-05-11T11:36:32.539Z,990.97
2023-05-11T11:37:32.533Z,990.94
2023-05-11T11:38:32.543Z,990.96
2023-05-11T11:39:32.520Z,990.94
2023-05-11T11:40:46.891Z,990.92
2023-05-11T11:41:34.526Z,990.87
2023-05-11T11:42:32.476Z,990.95
2023-05-11T11:43:32.514Z,990.93
2023-05-11T11:44:32.480Z,990.94
2023-05-11T11:45:32.470Z,990.93
2023-05-11T11:46:32.499Z,990.93
2023-05-11T11:47:32.515Z,990.98
2023-05-11T11:48:32.470Z,990.98
2023-05-11T11:49:32.426Z,990.97
2023-05-11T11:50:32.432Z,991.07
2023-05-11T11:51:32.431Z,990.97
2023-05-11T11:52:32.438Z,990.94
2023-05-11T11:53:32.453Z,990.93
2023-05-11T11:54:32.409Z,990.96
2023-05-11T11:55:32.413Z,990.94
2023-05-11T11:56:32.403Z,990.92
2023-05-11T11:57:32.410Z,990.87
2023-05-11T11:58:32.403Z,990.89
2023-05-11T11:59:32.449Z,990.98
2023-05-11T12:00:32.362Z,990.96
2023-05-11T12:01:32.355Z,990.95
2023-05-11T12:02:32.475Z,991.00
2023-05-11T12:03:32.467Z,990.99
2023-05-11T12:04:32.449Z,990.96
2023-05-11T12:05:32.338Z,990.93
2023-05-11T12:06:32.337Z,990.94
2023-05-11T12:07:32.346Z,990.93
2023-05-11T12:08:32.331Z,990.89
2023-05-11T12:09:32.397Z,990.91
2023-05-11T12:10:32.334Z,990.96
2023-05-11T12:11:32.303Z,990.98
2023-05-11T12:12:32.309Z,990.98
2023-05-11T12:13:32.338Z,990.97
2023-05-11T12:14:32.287Z,990.93
2023-05-11T12:15:32.366Z,990.99
2023-05-11T12:16:32.402Z,990.92
2023-05-11T12:17:32.273Z,990.98
2023-05-11T12:18:32.278Z,990.99
2023-05-11T12:19:32.233Z,990.93
2023-05-11T12:20:32.255Z,990.96
2023-05-11T12:21:32.369Z,990.99
2023-05-11T12:22:32.234Z,990.91
2023-05-11T12:23:32.277Z,990.97
2023-05-11T12:24:32.281Z,990.97
2023-05-11T12:25:32.245Z,990.95
2023-05-11T12:26:32.207Z,990.98
2023-05-11T12:27:32.212Z,991.01
2023-05-11T12:28:32.205Z,990.98
2023-05-11T12:29:32.175Z,991.00
2023-05-11T12:30:32.197Z,990.92